Huvudsida
METAR-TAF:

METAR-TAF

Flygplatser :

Gran Canarias flygplats

Gran Canaria, Spanien

latitud: 27-56N, longitud: 015-23W, höjd: 23 m

Aktuellt väderrapport

Denna rapport gjordes för 26 minuter sedan, klockan 03:30 UTC
Vind 7 kt från nord
Temperatur 16°C
Fuktighet 68%
Tryck 1018 hPa
Sikt 10 km eller mer
Få moln på en höjd av 4000 ft
Spridda moln på en höjd av 6500 ft

METAR: GCLP 160330Z 36007KT 9999 FEW040 SCT065 16/10 Q1018 NOSIG

Tid: 03:56 (03:56 UTC)

Väderprognos

Denna rapport gjordes för 1 timme och 56 minuter sedan, klockan 02:00 UTC
Prognos gäller från 16 kl. 03 UTC till 17 kl. 03 UTC
Vind 14 kt från nord/nordväst
Sikt 10 km eller mer
Få moln på en höjd av 3000 ft
Blir
från 16 kl. 08 UTC till 16 kl. 10 UTC
Vind 24 kt från nord
Temporärt
från 16 kl. 08 UTC till 16 kl. 19 UTC
Vind 24 kt från nord i byarna ända upp till 34 kt

TAF: GCLP 160200Z 1603/1703 33014KT 9999 FEW030 TX20/1614Z TN13/1603Z BECMG 1608/1610 36024KT TEMPO 1608/1619 36024G34KT

Aktuella väderrapporter och prognoser från 4000 flygplatser (METAR- och TAF-rapporter).

De tillgängliga stationerna syns som gula och röda prickar på kartan.

För musen över prickarna för att se namnen på stationerna.

Klicka sedan för att få väderrapporter och prognoser.

För att ändra kartan: Klicka på de gröna knapparna med ett svart kors på för att zooma in; den gröna knappen med ett streck på för att zooma ut; eller på de gröna pilarna för angränsande kartor.


METAR-TAF: